sensor_id;sensor_type;location;lat;lon;timestamp;pressure;altitude;pressure_sealevel;temperature;humidity
57572;BME280;44459;43.522;24.470;2024-01-11T00:00:05;101631.66;;;-10.64;95.00
57572;BME280;44459;43.522;24.470;2024-01-11T00:02:30;101631.88;;;-10.70;95.76
57572;BME280;44459;43.522;24.470;2024-01-11T00:04:56;101633.47;;;-10.63;96.03
57572;BME280;44459;43.522;24.470;2024-01-11T00:07:21;101628.56;;;-10.62;96.25
57572;BME280;44459;43.522;24.470;2024-01-11T00:09:47;101626.53;;;-10.64;96.87
57572;BME280;44459;43.522;24.470;2024-01-11T00:12:12;101626.00;;;-10.62;97.01
57572;BME280;44459;43.522;24.470;2024-01-11T00:14:38;101625.09;;;-10.62;97.05
57572;BME280;44459;43.522;24.470;2024-01-11T00:17:03;101617.50;;;-10.69;97.54
57572;BME280;44459;43.522;24.470;2024-01-11T00:19:29;101615.44;;;-10.65;97.58
57572;BME280;44459;43.522;24.470;2024-01-11T00:21:54;101619.06;;;-10.63;97.47
57572;BME280;44459;43.522;24.470;2024-01-11T00:24:19;101617.66;;;-10.68;97.93
57572;BME280;44459;43.522;24.470;2024-01-11T00:26:45;101614.69;;;-10.64;98.08
57572;BME280;44459;43.522;24.470;2024-01-11T00:29:10;101608.53;;;-10.66;98.21
57572;BME280;44459;43.522;24.470;2024-01-11T00:31:36;101608.16;;;-10.62;97.97
57572;BME280;44459;43.522;24.470;2024-01-11T00:34:02;101616.91;;;-10.67;97.02
57572;BME280;44459;43.522;24.470;2024-01-11T00:36:28;101606.97;;;-10.73;96.56
57572;BME280;44459;43.522;24.470;2024-01-11T00:38:54;101603.50;;;-10.73;96.70
57572;BME280;44459;43.522;24.470;2024-01-11T00:41:19;101602.72;;;-10.72;96.81
57572;BME280;44459;43.522;24.470;2024-01-11T00:43:45;101597.31;;;-10.75;95.64
57572;BME280;44459;43.522;24.470;2024-01-11T00:46:10;101605.72;;;-10.76;94.81
57572;BME280;44459;43.522;24.470;2024-01-11T00:48:36;101591.53;;;-10.81;93.97
57572;BME280;44459;43.522;24.470;2024-01-11T00:51:01;101589.22;;;-10.87;93.50
57572;BME280;44459;43.522;24.470;2024-01-11T00:53:28;101582.69;;;-10.92;94.84
57572;BME280;44459;43.522;24.470;2024-01-11T00:55:57;101587.78;;;-10.92;95.92
57572;BME280;44459;43.522;24.470;2024-01-11T00:58:22;101587.75;;;-11.07;96.76
57572;BME280;44459;43.522;24.470;2024-01-11T01:00:48;101580.09;;;-11.07;97.08
57572;BME280;44459;43.522;24.470;2024-01-11T01:03:14;101573.50;;;-11.05;97.94
57572;BME280;44459;43.522;24.470;2024-01-11T01:05:41;101576.59;;;-11.01;98.14
57572;BME280;44459;43.522;24.470;2024-01-11T01:08:07;101576.19;;;-10.97;97.92
57572;BME280;44459;43.522;24.470;2024-01-11T01:10:32;101572.03;;;-11.03;98.14
57572;BME280;44459;43.522;24.470;2024-01-11T01:12:57;101561.97;;;-11.17;97.73
57572;BME280;44459;43.522;24.470;2024-01-11T01:15:23;101558.00;;;-11.23;98.21
57572;BME280;44459;43.522;24.470;2024-01-11T01:17:48;101566.69;;;-11.20;98.60
57572;BME280;44459;43.522;24.470;2024-01-11T01:20:14;101556.00;;;-11.25;98.95
57572;BME280;44459;43.522;24.470;2024-01-11T01:22:40;101555.31;;;-11.31;99.28
57572;BME280;44459;43.522;24.470;2024-01-11T01:25:05;101549.22;;;-11.47;98.98
57572;BME280;44459;43.522;24.470;2024-01-11T01:27:31;101544.72;;;-11.50;99.26
57572;BME280;44459;43.522;24.470;2024-01-11T01:29:56;101547.41;;;-11.48;99.15
57572;BME280;44459;43.522;24.470;2024-01-11T01:32:21;101541.25;;;-11.50;99.38
57572;BME280;44459;43.522;24.470;2024-01-11T01:34:47;101542.88;;;-11.51;99.27
57572;BME280;44459;43.522;24.470;2024-01-11T01:37:12;101537.41;;;-11.47;98.80
57572;BME280;44459;43.522;24.470;2024-01-11T01:39:38;101536.84;;;-11.44;98.73
57572;BME280;44459;43.522;24.470;2024-01-11T01:42:05;101536.63;;;-11.39;98.78
57572;BME280;44459;43.522;24.470;2024-01-11T01:44:31;101532.94;;;-11.34;98.97
57572;BME280;44459;43.522;24.470;2024-01-11T01:46:56;101527.28;;;-11.31;99.07
57572;BME280;44459;43.522;24.470;2024-01-11T01:49:22;101522.19;;;-11.31;98.38
57572;BME280;44459;43.522;24.470;2024-01-11T01:51:48;101521.41;;;-11.23;98.93
57572;BME280;44459;43.522;24.470;2024-01-11T01:54:15;101523.03;;;-11.24;97.26
57572;BME280;44459;43.522;24.470;2024-01-11T01:56:41;101513.63;;;-11.25;97.20
57572;BME280;44459;43.522;24.470;2024-01-11T01:59:08;101503.81;;;-11.29;97.35
57572;BME280;44459;43.522;24.470;2024-01-11T02:01:34;101503.97;;;-11.27;97.17
57572;BME280;44459;43.522;24.470;2024-01-11T02:03:59;101502.84;;;-11.22;95.95
57572;BME280;44459;43.522;24.470;2024-01-11T02:06:25;101500.88;;;-11.25;95.61
57572;BME280;44459;43.522;24.470;2024-01-11T02:08:54;101500.69;;;-11.26;94.72
57572;BME280;44459;43.522;24.470;2024-01-11T02:11:21;101498.31;;;-11.25;94.74
57572;BME280;44459;43.522;24.470;2024-01-11T02:13:49;101504.31;;;-11.24;94.66
57572;BME280;44459;43.522;24.470;2024-01-11T02:16:15;101505.78;;;-11.26;94.97
57572;BME280;44459;43.522;24.470;2024-01-11T02:18:40;101505.06;;;-11.25;94.85
57572;BME280;44459;43.522;24.470;2024-01-11T02:21:08;101504.31;;;-11.24;94.92
57572;BME280;44459;43.522;24.470;2024-01-11T02:23:36;101484.41;;;-11.35;95.35
57572;BME280;44459;43.522;24.470;2024-01-11T02:26:05;101505.22;;;-11.24;95.14
57572;BME280;44459;43.522;24.470;2024-01-11T02:28:32;101501.75;;;-11.24;95.48
57572;BME280;44459;43.522;24.470;2024-01-11T02:30:57;101503.41;;;-11.25;94.90
57572;BME280;44459;43.522;24.470;2024-01-11T02:33:23;101504.16;;;-11.26;95.47
57572;BME280;44459;43.522;24.470;2024-01-11T02:35:48;101499.19;;;-11.24;95.28
57572;BME280;44459;43.522;24.470;2024-01-11T02:38:14;101492.09;;;-11.19;95.80
57572;BME280;44459;43.522;24.470;2024-01-11T02:40:41;101483.38;;;-11.21;95.73
57572;BME280;44459;43.522;24.470;2024-01-11T02:43:08;101486.41;;;-11.17;96.72
57572;BME280;44459;43.522;24.470;2024-01-11T02:45:34;101478.94;;;-11.15;97.08
57572;BME280;44459;43.522;24.470;2024-01-11T02:47:59;101476.22;;;-11.17;97.38
57572;BME280;44459;43.522;24.470;2024-01-11T02:50:24;101481.50;;;-11.15;98.38
57572;BME280;44459;43.522;24.470;2024-01-11T02:52:50;101465.63;;;-11.13;98.71
57572;BME280;44459;43.522;24.470;2024-01-11T02:55:15;101473.28;;;-11.13;98.90
57572;BME280;44459;43.522;24.470;2024-01-11T02:57:41;101462.75;;;-11.16;98.71
57572;BME280;44459;43.522;24.470;2024-01-11T03:00:06;101468.41;;;-11.18;99.23
57572;BME280;44459;43.522;24.470;2024-01-11T03:02:32;101469.34;;;-11.18;99.83
57572;BME280;44459;43.522;24.470;2024-01-11T03:04:57;101467.31;;;-11.20;100.00
57572;BME280;44459;43.522;24.470;2024-01-11T03:07:23;101472.41;;;-11.20;100.00
57572;BME280;44459;43.522;24.470;2024-01-11T03:09:48;101469.34;;;-11.18;100.00
57572;BME280;44459;43.522;24.470;2024-01-11T03:12:14;101466.03;;;-11.17;100.00
57572;BME280;44459;43.522;24.470;2024-01-11T03:14:39;101472.94;;;-11.16;100.00
57572;BME280;44459;43.522;24.470;2024-01-11T03:17:05;101461.84;;;-11.16;99.34
57572;BME280;44459;43.522;24.470;2024-01-11T03:19:30;101470.25;;;-11.17;98.53
57572;BME280;44459;43.522;24.470;2024-01-11T03:21:56;101468.25;;;-11.20;98.19
57572;BME280;44459;43.522;24.470;2024-01-11T03:24:21;101460.59;;;-11.20;97.98
57572;BME280;44459;43.522;24.470;2024-01-11T03:26:47;101455.81;;;-11.17;97.84
57572;BME280;44459;43.522;24.470;2024-01-11T03:29:13;101454.44;;;-11.22;97.33
57572;BME280;44459;43.522;24.470;2024-01-11T03:31:39;101450.78;;;-11.24;97.30
57572;BME280;44459;43.522;24.470;2024-01-11T03:34:07;101453.72;;;-11.21;97.14
57572;BME280;44459;43.522;24.470;2024-01-11T03:36:33;101446.63;;;-11.24;96.99
57572;BME280;44459;43.522;24.470;2024-01-11T03:38:58;101442.59;;;-11.21;97.11
57572;BME280;44459;43.522;24.470;2024-01-11T03:41:23;101443.66;;;-11.19;97.13
57572;BME280;44459;43.522;24.470;2024-01-11T03:43:50;101429.09;;;-11.20;96.96
57572;BME280;44459;43.522;24.470;2024-01-11T03:46:15;101432.91;;;-11.17;97.02
57572;BME280;44459;43.522;24.470;2024-01-11T03:48:41;101430.53;;;-11.15;97.05
57572;BME280;44459;43.522;24.470;2024-01-11T03:51:06;101419.63;;;-11.14;96.38
57572;BME280;44459;43.522;24.470;2024-01-11T03:53:36;101424.91;;;-11.20;95.66
57572;BME280;44459;43.522;24.470;2024-01-11T03:56:02;101418.78;;;-11.22;95.92
57572;BME280;44459;43.522;24.470;2024-01-11T03:58:28;101420.75;;;-11.19;96.24
57572;BME280;44459;43.522;24.470;2024-01-11T04:00:53;101426.16;;;-11.16;96.76
57572;BME280;44459;43.522;24.470;2024-01-11T04:03:19;101413.44;;;-11.16;96.70
57572;BME280;44459;43.522;24.470;2024-01-11T04:05:44;101424.91;;;-11.20;96.50
57572;BME280;44459;43.522;24.470;2024-01-11T04:08:10;101424.38;;;-11.17;96.39
57572;BME280;44459;43.522;24.470;2024-01-11T04:10:35;101414.00;;;-11.19;96.57
57572;BME280;44459;43.522;24.470;2024-01-11T04:13:00;101418.91;;;-11.20;96.21
57572;BME280;44459;43.522;24.470;2024-01-11T04:15:26;101410.78;;;-11.25;96.44
57572;BME280;44459;43.522;24.470;2024-01-11T04:17:51;101411.34;;;-11.28;98.03
57572;BME280;44459;43.522;24.470;2024-01-11T04:20:17;101419.50;;;-11.23;99.78
57572;BME280;44459;43.522;24.470;2024-01-11T04:22:43;101417.59;;;-11.17;100.00
57572;BME280;44459;43.522;24.470;2024-01-11T04:25:08;101413.94;;;-11.12;100.00
57572;BME280;44459;43.522;24.470;2024-01-11T04:27:33;101409.56;;;-11.13;100.00
57572;BME280;44459;43.522;24.470;2024-01-11T04:29:59;101395.38;;;-11.11;100.00
57572;BME280;44459;43.522;24.470;2024-01-11T04:32:24;101401.13;;;-11.05;100.00
57572;BME280;44459;43.522;24.470;2024-01-11T04:34:50;101394.53;;;-11.03;100.00
57572;BME280;44459;43.522;24.470;2024-01-11T04:37:15;101391.84;;;-11.04;100.00
57572;BME280;44459;43.522;24.470;2024-01-11T04:39:41;101389.69;;;-11.08;100.00
57572;BME280;44459;43.522;24.470;2024-01-11T04:42:06;101386.81;;;-11.11;100.00
57572;BME280;44459;43.522;24.470;2024-01-11T04:44:31;101387.53;;;-11.12;99.67
57572;BME280;44459;43.522;24.470;2024-01-11T04:46:57;101386.50;;;-11.14;98.96
57572;BME280;44459;43.522;24.470;2024-01-11T04:49:22;101374.47;;;-11.15;98.64
57572;BME280;44459;43.522;24.470;2024-01-11T04:51:48;101385.91;;;-11.12;98.63
57572;BME280;44459;43.522;24.470;2024-01-11T04:54:13;101386.50;;;-11.14;98.68
57572;BME280;44459;43.522;24.470;2024-01-11T04:56:39;101385.06;;;-11.19;99.22
57572;BME280;44459;43.522;24.470;2024-01-11T04:59:04;101387.28;;;-11.23;99.59
57572;BME280;44459;43.522;24.470;2024-01-11T05:01:29;101383.16;;;-11.29;100.00
57572;BME280;44459;43.522;24.470;2024-01-11T05:03:55;101378.66;;;-11.32;100.00
57572;BME280;44459;43.522;24.470;2024-01-11T05:06:22;101385.53;;;-11.31;100.00
57572;BME280;44459;43.522;24.470;2024-01-11T05:08:49;101382.59;;;-11.27;100.00
57572;BME280;44459;43.522;24.470;2024-01-11T05:11:19;101381.69;;;-11.27;100.00
57572;BME280;44459;43.522;24.470;2024-01-11T05:13:45;101381.84;;;-11.26;100.00
57572;BME280;44459;43.522;24.470;2024-01-11T05:16:26;101377.69;;;-11.25;100.00
57572;BME280;44459;43.522;24.470;2024-01-11T05:18:53;101364.59;;;-11.28;100.00
57572;BME280;44459;43.522;24.470;2024-01-11T05:21:19;101369.78;;;-11.35;100.00
57572;BME280;44459;43.522;24.470;2024-01-11T05:23:44;101362.00;;;-11.44;99.57
57572;BME280;44459;43.522;24.470;2024-01-11T05:26:11;101374.59;;;-11.45;99.92
57572;BME280;44459;43.522;24.470;2024-01-11T05:28:36;101368.25;;;-11.49;99.85
57572;BME280;44459;43.522;24.470;2024-01-11T05:31:05;101352.81;;;-11.50;100.00
57572;BME280;44459;43.522;24.470;2024-01-11T05:33:32;101344.50;;;-11.56;99.80
57572;BME280;44459;43.522;24.470;2024-01-11T05:35:57;101343.00;;;-11.70;99.26
57572;BME280;44459;43.522;24.470;2024-01-11T05:38:22;101332.56;;;-11.80;98.92
57572;BME280;44459;43.522;24.470;2024-01-11T05:40:48;101336.19;;;-11.78;100.00
57572;BME280;44459;43.522;24.470;2024-01-11T05:43:13;101332.38;;;-11.82;100.00
57572;BME280;44459;43.522;24.470;2024-01-11T05:45:39;101327.88;;;-11.84;100.00
57572;BME280;44459;43.522;24.470;2024-01-11T05:48:04;101329.25;;;-11.79;100.00
57572;BME280;44459;43.522;24.470;2024-01-11T05:50:31;101332.22;;;-11.67;100.00
57572;BME280;44459;43.522;24.470;2024-01-11T05:53:04;101331.66;;;-11.65;100.00
57572;BME280;44459;43.522;24.470;2024-01-11T05:55:29;101320.09;;;-11.70;100.00
57572;BME280;44459;43.522;24.470;2024-01-11T05:57:54;101329.38;;;-11.70;100.00
57572;BME280;44459;43.522;24.470;2024-01-11T06:00:20;101319.50;;;-11.67;100.00
57572;BME280;44459;43.522;24.470;2024-01-11T06:02:46;101320.00;;;-11.63;100.00
57572;BME280;44459;43.522;24.470;2024-01-11T06:05:11;101310.50;;;-11.57;100.00
57572;BME280;44459;43.522;24.470;2024-01-11T06:07:40;101320.75;;;-11.48;100.00
57572;BME280;44459;43.522;24.470;2024-01-11T06:10:06;101319.56;;;-11.36;100.00
57572;BME280;44459;43.522;24.470;2024-01-11T06:12:33;101320.31;;;-11.21;100.00
57572;BME280;44459;43.522;24.470;2024-01-11T06:14:59;101312.75;;;-11.13;100.00
57572;BME280;44459;43.522;24.470;2024-01-11T06:17:24;101301.56;;;-11.06;100.00
57572;BME280;44459;43.522;24.470;2024-01-11T06:19:50;101311.16;;;-10.88;100.00
57572;BME280;44459;43.522;24.470;2024-01-11T06:22:15;101298.75;;;-10.85;100.00
57572;BME280;44459;43.522;24.470;2024-01-11T06:24:41;101303.25;;;-10.67;100.00
57572;BME280;44459;43.522;24.470;2024-01-11T06:27:06;101300.50;;;-10.53;100.00
57572;BME280;44459;43.522;24.470;2024-01-11T06:29:32;101303.28;;;-10.43;100.00
57572;BME280;44459;43.522;24.470;2024-01-11T06:31:57;101286.63;;;-10.39;100.00
57572;BME280;44459;43.522;24.470;2024-01-11T06:34:23;101290.91;;;-10.31;100.00
57572;BME280;44459;43.522;24.470;2024-01-11T06:36:48;101292.59;;;-10.23;100.00
57572;BME280;44459;43.522;24.470;2024-01-11T06:39:13;101291.75;;;-10.15;100.00
57572;BME280;44459;43.522;24.470;2024-01-11T06:41:39;101295.97;;;-10.07;100.00
57572;BME280;44459;43.522;24.470;2024-01-11T06:44:04;101293.84;;;-10.02;100.00
57572;BME280;44459;43.522;24.470;2024-01-11T06:46:30;101288.75;;;-10.02;100.00
57572;BME280;44459;43.522;24.470;2024-01-11T06:48:56;101286.84;;;-9.96;100.00
57572;BME280;44459;43.522;24.470;2024-01-11T06:51:22;101293.81;;;-9.87;100.00
57572;BME280;44459;43.522;24.470;2024-01-11T06:53:48;101284.63;;;-9.85;100.00
57572;BME280;44459;43.522;24.470;2024-01-11T06:56:18;101284.38;;;-9.79;100.00
57572;BME280;44459;43.522;24.470;2024-01-11T06:58:46;101286.03;;;-9.71;100.00
57572;BME280;44459;43.522;24.470;2024-01-11T07:01:12;101288.59;;;-9.71;100.00
57572;BME280;44459;43.522;24.470;2024-01-11T07:03:38;101291.78;;;-9.65;100.00
57572;BME280;44459;43.522;24.470;2024-01-11T07:06:04;101278.25;;;-9.64;100.00
57572;BME280;44459;43.522;24.470;2024-01-11T07:08:31;101275.25;;;-9.60;100.00
57572;BME280;44459;43.522;24.470;2024-01-11T07:10:58;101268.38;;;-9.52;100.00
57572;BME280;44459;43.522;24.470;2024-01-11T07:13:23;101280.59;;;-9.41;100.00
57572;BME280;44459;43.522;24.470;2024-01-11T07:15:49;101274.72;;;-9.32;100.00
57572;BME280;44459;43.522;24.470;2024-01-11T07:18:17;101276.09;;;-9.27;100.00
57572;BME280;44459;43.522;24.470;2024-01-11T07:20:42;101269.03;;;-9.21;100.00
57572;BME280;44459;43.522;24.470;2024-01-11T07:23:07;101258.69;;;-9.13;100.00
57572;BME280;44459;43.522;24.470;2024-01-11T07:25:33;101263.19;;;-9.11;100.00
57572;BME280;44459;43.522;24.470;2024-01-11T07:28:00;101266.03;;;-9.08;100.00
57572;BME280;44459;43.522;24.470;2024-01-11T07:30:25;101263.50;;;-8.99;100.00
57572;BME280;44459;43.522;24.470;2024-01-11T07:32:50;101265.91;;;-8.92;100.00
57572;BME280;44459;43.522;24.470;2024-01-11T07:35:16;101250.53;;;-8.84;100.00
57572;BME280;44459;43.522;24.470;2024-01-11T07:37:42;101260.50;;;-8.78;100.00
57572;BME280;44459;43.522;24.470;2024-01-11T07:40:08;101253.53;;;-8.71;100.00
57572;BME280;44459;43.522;24.470;2024-01-11T07:42:38;101256.41;;;-8.59;100.00
57572;BME280;44459;43.522;24.470;2024-01-11T07:45:05;101248.56;;;-8.52;100.00
57572;BME280;44459;43.522;24.470;2024-01-11T07:47:31;101251.69;;;-8.46;100.00
57572;BME280;44459;43.522;24.470;2024-01-11T07:49:56;101249.31;;;-8.44;100.00
57572;BME280;44459;43.522;24.470;2024-01-11T07:52:22;101250.06;;;-8.37;100.00
57572;BME280;44459;43.522;24.470;2024-01-11T07:54:48;101246.66;;;-8.27;100.00
57572;BME280;44459;43.522;24.470;2024-01-11T07:57:13;101244.34;;;-8.16;100.00
57572;BME280;44459;43.522;24.470;2024-01-11T07:59:38;101239.50;;;-8.04;100.00
57572;BME280;44459;43.522;24.470;2024-01-11T08:02:04;101243.69;;;-7.96;100.00
57572;BME280;44459;43.522;24.470;2024-01-11T08:04:31;101241.88;;;-7.88;100.00
57572;BME280;44459;43.522;24.470;2024-01-11T08:06:56;101243.06;;;-7.85;100.00
57572;BME280;44459;43.522;24.470;2024-01-11T08:09:25;101240.25;;;-7.69;100.00
57572;BME280;44459;43.522;24.470;2024-01-11T08:11:51;101241.97;;;-7.51;100.00
57572;BME280;44459;43.522;24.470;2024-01-11T08:14:17;101249.69;;;-7.32;100.00
57572;BME280;44459;43.522;24.470;2024-01-11T08:16:43;101239.66;;;-7.21;100.00
57572;BME280;44459;43.522;24.470;2024-01-11T08:19:08;101250.53;;;-7.04;100.00
57572;BME280;44459;43.522;24.470;2024-01-11T08:21:35;101240.66;;;-6.91;100.00
57572;BME280;44459;43.522;24.470;2024-01-11T08:24:01;101247.41;;;-6.73;100.00
57572;BME280;44459;43.522;24.470;2024-01-11T08:26:28;101243.66;;;-6.58;100.00
57572;BME280;44459;43.522;24.470;2024-01-11T08:28:53;101245.31;;;-6.40;100.00
57572;BME280;44459;43.522;24.470;2024-01-11T08:31:19;101240.47;;;-6.27;100.00
57572;BME280;44459;43.522;24.470;2024-01-11T08:33:44;101247.47;;;-6.16;100.00
57572;BME280;44459;43.522;24.470;2024-01-11T08:36:10;101247.00;;;-6.01;100.00
57572;BME280;44459;43.522;24.470;2024-01-11T08:38:36;101240.72;;;-5.85;100.00
57572;BME280;44459;43.522;24.470;2024-01-11T08:41:02;101223.38;;;-5.77;100.00
57572;BME280;44459;43.522;24.470;2024-01-11T08:43:28;101221.47;;;-5.60;100.00
57572;BME280;44459;43.522;24.470;2024-01-11T08:45:54;101226.63;;;-5.49;100.00
57572;BME280;44459;43.522;24.470;2024-01-11T08:48:20;101227.41;;;-5.40;99.20
57572;BME280;44459;43.522;24.470;2024-01-11T08:50:46;101212.63;;;-5.43;98.86
57572;BME280;44459;43.522;24.470;2024-01-11T08:53:11;101224.22;;;-5.28;99.28
57572;BME280;44459;43.522;24.470;2024-01-11T08:55:37;101215.94;;;-5.24;97.85
57572;BME280;44459;43.522;24.470;2024-01-11T08:58:02;101209.03;;;-5.25;98.21
57572;BME280;44459;43.522;24.470;2024-01-11T09:00:29;101218.50;;;-5.14;98.21
57572;BME280;44459;43.522;24.470;2024-01-11T09:02:55;101213.09;;;-5.07;97.97
57572;BME280;44459;43.522;24.470;2024-01-11T09:05:20;101213.63;;;-5.00;97.57
57572;BME280;44459;43.522;24.470;2024-01-11T09:07:46;101199.94;;;-4.89;97.89
57572;BME280;44459;43.522;24.470;2024-01-11T09:10:12;101199.31;;;-4.87;97.72
57572;BME280;44459;43.522;24.470;2024-01-11T09:12:38;101204.06;;;-4.81;98.80
57572;BME280;44459;43.522;24.470;2024-01-11T09:15:04;101199.41;;;-4.75;97.42
57572;BME280;44459;43.522;24.470;2024-01-11T09:17:29;101186.25;;;-4.68;96.63
57572;BME280;44459;43.522;24.470;2024-01-11T09:19:55;101186.53;;;-4.65;97.33
57572;BME280;44459;43.522;24.470;2024-01-11T09:22:20;101178.47;;;-4.58;96.96
57572;BME280;44459;43.522;24.470;2024-01-11T09:24:46;101166.41;;;-4.59;97.50
57572;BME280;44459;43.522;24.470;2024-01-11T09:27:11;101164.53;;;-4.50;97.07
57572;BME280;44459;43.522;24.470;2024-01-11T09:29:42;101165.03;;;-4.44;96.39
57572;BME280;44459;43.522;24.470;2024-01-11T09:32:07;101167.88;;;-4.41;93.08
57572;BME280;44459;43.522;24.470;2024-01-11T09:34:33;101160.69;;;-4.45;93.00
57572;BME280;44459;43.522;24.470;2024-01-11T09:36:58;101156.81;;;-4.50;93.85
57572;BME280;44459;43.522;24.470;2024-01-11T09:39:24;101153.06;;;-4.43;94.62
57572;BME280;44459;43.522;24.470;2024-01-11T09:42:17;101152.09;;;-4.34;96.36
57572;BME280;44459;43.522;24.470;2024-01-11T09:44:43;101143.72;;;-4.31;95.44
57572;BME280;44459;43.522;24.470;2024-01-11T09:47:10;101137.91;;;-4.29;95.38
57572;BME280;44459;43.522;24.470;2024-01-11T09:49:38;101135.56;;;-4.26;95.49
57572;BME280;44459;43.522;24.470;2024-01-11T09:52:05;101126.94;;;-4.26;95.20
57572;BME280;44459;43.522;24.470;2024-01-11T09:54:30;101114.84;;;-4.27;95.23
57572;BME280;44459;43.522;24.470;2024-01-11T09:56:58;101111.97;;;-4.20;96.67
57572;BME280;44459;43.522;24.470;2024-01-11T09:59:25;101105.63;;;-4.14;95.68
57572;BME280;44459;43.522;24.470;2024-01-11T10:01:51;101098.13;;;-4.11;94.96
57572;BME280;44459;43.522;24.470;2024-01-11T10:04:17;101092.53;;;-4.05;95.24
57572;BME280;44459;43.522;24.470;2024-01-11T10:06:43;101088.63;;;-4.00;95.42
57572;BME280;44459;43.522;24.470;2024-01-11T10:09:09;101085.69;;;-4.04;94.65
57572;BME280;44459;43.522;24.470;2024-01-11T10:11:34;101076.97;;;-4.07;94.74
57572;BME280;44459;43.522;24.470;2024-01-11T10:14:02;101069.47;;;-4.03;95.77
57572;BME280;44459;43.522;24.470;2024-01-11T10:16:28;101069.25;;;-3.95;94.93
57572;BME280;44459;43.522;24.470;2024-01-11T10:18:57;101066.03;;;-3.92;94.69
57572;BME280;44459;43.522;24.470;2024-01-11T10:21:26;101059.75;;;-3.84;95.59
57572;BME280;44459;43.522;24.470;2024-01-11T10:23:52;101058.75;;;-3.86;96.51
57572;BME280;44459;43.522;24.470;2024-01-11T10:26:18;101061.69;;;-3.82;95.55
57572;BME280;44459;43.522;24.470;2024-01-11T10:28:47;101062.78;;;-3.78;95.04
57572;BME280;44459;43.522;24.470;2024-01-11T10:31:13;101051.25;;;-3.83;95.23
57572;BME280;44459;43.522;24.470;2024-01-11T10:33:40;101050.47;;;-3.82;95.22
57572;BME280;44459;43.522;24.470;2024-01-11T10:36:06;101042.28;;;-3.77;96.19
57572;BME280;44459;43.522;24.470;2024-01-11T10:38:39;101044.97;;;-3.64;96.24
57572;BME280;44459;43.522;24.470;2024-01-11T10:41:05;101043.75;;;-3.57;95.52
57572;BME280;44459;43.522;24.470;2024-01-11T10:43:31;101037.81;;;-3.56;95.59
57572;BME280;44459;43.522;24.470;2024-01-11T10:46:00;101036.72;;;-3.48;96.58
57572;BME280;44459;43.522;24.470;2024-01-11T10:48:30;101025.38;;;-3.50;95.48
57572;BME280;44459;43.522;24.470;2024-01-11T10:51:00;101013.38;;;-3.38;96.39
57572;BME280;44459;43.522;24.470;2024-01-11T10:53:44;101010.34;;;-3.32;97.25
57572;BME280;44459;43.522;24.470;2024-01-11T10:56:11;101005.75;;;-3.25;95.26
57572;BME280;44459;43.522;24.470;2024-01-11T10:58:40;100999.91;;;-3.11;94.24
57572;BME280;44459;43.522;24.470;2024-01-11T11:01:06;100997.75;;;-3.05;92.17
57572;BME280;44459;43.522;24.470;2024-01-11T11:03:33;100979.78;;;-3.03;92.81
57572;BME280;44459;43.522;24.470;2024-01-11T11:06:00;100961.81;;;-3.01;92.87
57572;BME280;44459;43.522;24.470;2024-01-11T11:08:26;100971.78;;;-2.94;94.97
57572;BME280;44459;43.522;24.470;2024-01-11T11:10:56;100961.22;;;-2.86;92.12
57572;BME280;44459;43.522;24.470;2024-01-11T11:13:26;100964.72;;;-2.85;92.84
57572;BME280;44459;43.522;24.470;2024-01-11T11:15:52;100963.59;;;-2.89;91.88
57572;BME280;44459;43.522;24.470;2024-01-11T11:18:18;100952.56;;;-2.86;92.07
57572;BME280;44459;43.522;24.470;2024-01-11T11:20:45;100948.16;;;-2.76;91.54
57572;BME280;44459;43.522;24.470;2024-01-11T11:23:12;100937.63;;;-2.79;91.84
57572;BME280;44459;43.522;24.470;2024-01-11T11:25:42;100927.38;;;-2.77;92.07
57572;BME280;44459;43.522;24.470;2024-01-11T11:28:08;100922.94;;;-2.67;91.65
57572;BME280;44459;43.522;24.470;2024-01-11T11:30:37;100922.59;;;-2.60;90.90
57572;BME280;44459;43.522;24.470;2024-01-11T11:33:25;100922.22;;;-2.53;90.33
57572;BME280;44459;43.522;24.470;2024-01-11T11:35:56;100920.28;;;-2.43;88.12
57572;BME280;44459;43.522;24.470;2024-01-11T11:38:23;100915.75;;;-2.46;88.93
57572;BME280;44459;43.522;24.470;2024-01-11T11:40:52;100898.97;;;-2.39;90.12
57572;BME280;44459;43.522;24.470;2024-01-11T11:43:18;100891.56;;;-2.35;90.96
57572;BME280;44459;43.522;24.470;2024-01-11T11:45:48;100888.06;;;-2.35;88.86
57572;BME280;44459;43.522;24.470;2024-01-11T11:51:19;100894.53;;;-2.29;88.88
57572;BME280;44459;43.522;24.470;2024-01-11T11:53:49;100878.56;;;-2.23;89.66
57572;BME280;44459;43.522;24.470;2024-01-11T11:56:17;100872.88;;;-2.18;88.61
57572;BME280;44459;43.522;24.470;2024-01-11T11:58:44;100868.81;;;-2.14;88.72
57572;BME280;44459;43.522;24.470;2024-01-11T12:01:10;100859.75;;;-2.08;88.71
57572;BME280;44459;43.522;24.470;2024-01-11T12:03:37;100853.59;;;-1.96;89.18
57572;BME280;44459;43.522;24.470;2024-01-11T12:06:05;100849.72;;;-1.90;88.40
57572;BME280;44459;43.522;24.470;2024-01-11T12:08:31;100840.47;;;-1.86;88.27
57572;BME280;44459;43.522;24.470;2024-01-11T12:10:57;100837.41;;;-1.81;88.50
57572;BME280;44459;43.522;24.470;2024-01-11T12:13:22;100841.28;;;-1.74;87.26
57572;BME280;44459;43.522;24.470;2024-01-11T12:15:48;100835.41;;;-1.72;87.65
57572;BME280;44459;43.522;24.470;2024-01-11T12:18:14;100833.13;;;-1.67;87.33
57572;BME280;44459;43.522;24.470;2024-01-11T12:20:39;100814.19;;;-1.66;86.21
57572;BME280;44459;43.522;24.470;2024-01-11T12:23:05;100811.88;;;-1.62;86.35
57572;BME280;44459;43.522;24.470;2024-01-11T12:25:31;100811.88;;;-1.62;86.77
57572;BME280;44459;43.522;24.470;2024-01-11T12:27:57;100815.94;;;-1.52;84.96